Time;durP1;ratioP1;P1;durP2;ratioP2;P2;SDS_P1;SDS_P2;PMS_P1;PMS_P2;Temp;Humidity;BMP_temperature;BMP_pressure;BME280_temperature;BME280_humidity;BME280_pressure;Samples;Min_cycle;Max_cycle;Signal;HPM_P1;HPM_P2
2020/12/08 00:00:59;;;;;;;11.30;6.78;;;4.40;99.90;;;;;;4153381;28;20056;-73
2020/12/08 00:02:59;;;;;;;14.05;7.85;;;4.50;99.90;;;;;;4143135;28;20018;-72
2020/12/08 00:05:00;;;;;;;13.43;8.23;;;4.40;99.90;;;;;;4161662;28;20030;-72
2020/12/08 00:07:03;;;;;;;13.20;7.47;;;4.40;99.90;;;;;;4160920;28;20041;-72
2020/12/08 00:09:03;;;;;;;16.60;9.25;;;4.40;99.90;;;;;;4159772;28;20136;-72
2020/12/08 00:11:04;;;;;;;19.25;9.57;;;4.40;99.90;;;;;;4161163;28;20090;-72
2020/12/08 00:13:04;;;;;;;15.60;8.95;;;4.40;99.90;;;;;;4159425;28;20022;-72
2020/12/08 00:15:05;;;;;;;15.23;8.77;;;4.40;99.90;;;;;;4160020;28;20515;-72
2020/12/08 00:17:06;;;;;;;12.95;8.13;;;4.40;99.90;;;;;;4159330;28;20036;-72
2020/12/08 00:19:10;;;;;;;13.10;7.85;;;4.50;99.90;;;;;;4160956;28;20104;-72
2020/12/08 00:21:11;;;;;;;15.55;7.65;;;4.40;99.90;;;;;;4160891;28;20018;-72
2020/12/08 00:23:11;;;;;;;15.40;9.23;;;4.40;99.90;;;;;;4160358;28;20394;-72
2020/12/08 00:25:12;;;;;;;18.02;9.45;;;4.40;99.90;;;;;;4160741;28;20038;-72
2020/12/08 00:27:14;;;;;;;17.55;9.65;;;4.40;99.90;;;;;;4157634;28;20037;-72
2020/12/08 00:29:14;;;;;;;17.45;9.30;;;4.40;99.90;;;;;;4156617;28;20389;-73
2020/12/08 00:31:15;;;;;;;21.65;9.80;;;4.40;99.90;;;;;;4161142;28;20367;-72
2020/12/08 00:33:16;;;;;;;15.07;8.68;;;4.40;99.90;;;;;;4161403;28;20795;-72
2020/12/08 00:35:17;;;;;;;15.60;8.95;;;4.40;99.90;;;;;;4160416;28;20041;-72
2020/12/08 00:37:18;;;;;;;17.33;9.32;;;4.40;99.90;;;;;;4160207;28;20077;-72
2020/12/08 00:39:19;;;;;;;16.63;9.18;;;4.40;99.90;;;;;;4160429;28;20033;-72
2020/12/08 00:41:21;;;;;;;15.68;8.57;;;4.40;99.90;;;;;;4160128;28;20025;-73
2020/12/08 00:43:22;;;;;;;17.25;9.07;;;4.40;99.90;;;;;;4159686;28;20045;-72
2020/12/08 00:45:22;;;;;;;14.82;7.88;;;4.30;99.90;;;;;;4160238;28;20091;-72
2020/12/08 00:47:23;;;;;;;14.88;8.57;;;4.40;99.90;;;;;;4161185;28;20049;-72
2020/12/08 00:49:23;;;;;;;14.30;8.65;;;4.30;99.90;;;;;;4159279;28;20247;-72
2020/12/08 00:51:25;;;;;;;14.68;8.00;;;4.30;99.90;;;;;;4160708;28;20048;-73
2020/12/08 00:53:26;;;;;;;12.27;8.07;;;4.30;99.90;;;;;;4160750;28;20039;-73
2020/12/08 00:55:26;;;;;;;12.68;7.78;;;4.30;99.90;;;;;;4160601;28;20124;-72
2020/12/08 00:57:27;;;;;;;16.48;9.45;;;4.30;99.90;;;;;;4159092;28;20121;-72
2020/12/08 00:59:27;;;;;;;18.45;9.85;;;4.20;99.90;;;;;;4160592;28;20140;-72
2020/12/08 01:01:28;;;;;;;15.20;8.80;;;4.20;99.90;;;;;;4159752;28;20039;-72
2020/12/08 01:03:29;;;;;;;17.20;8.60;;;4.20;99.90;;;;;;4160332;28;20471;-72
2020/12/08 01:05:32;;;;;;;18.48;9.13;;;4.20;99.90;;;;;;4158701;28;20029;-72
2020/12/08 01:07:32;;;;;;;15.13;8.65;;;4.20;99.90;;;;;;4160835;28;20029;-72
2020/12/08 01:09:33;;;;;;;14.32;7.78;;;4.20;99.90;;;;;;4160384;28;20539;-72
2020/12/08 01:11:41;;;;;;;12.65;7.78;;;4.20;99.90;;;;;;4151281;28;20034;-72
2020/12/08 01:13:42;;;;;;;14.00;8.25;;;4.20;99.90;;;;;;4158677;28;20064;-73
2020/12/08 01:15:43;;;;;;;15.25;8.82;;;4.20;99.90;;;;;;4153560;28;20049;-72
2020/12/08 01:17:44;;;;;;;14.57;8.35;;;4.10;99.90;;;;;;4142953;28;20037;-72
2020/12/08 01:19:44;;;;;;;14.90;8.45;;;4.10;99.90;;;;;;4160200;28;20092;-72
2020/12/08 01:21:45;;;;;;;13.15;8.30;;;4.10;99.90;;;;;;4159994;28;20021;-72
2020/12/08 01:23:45;;;;;;;14.48;7.60;;;4.10;99.90;;;;;;4157018;28;20037;-72
2020/12/08 01:25:46;;;;;;;12.05;7.30;;;4.00;99.90;;;;;;4160264;28;20029;-72
2020/12/08 01:27:46;;;;;;;15.43;7.60;;;4.00;99.90;;;;;;4159911;28;20033;-72
2020/12/08 01:29:47;;;;;;;11.43;6.95;;;4.00;99.90;;;;;;4160233;28;20045;-73
2020/12/08 01:31:47;;;;;;;13.27;8.02;;;4.00;99.90;;;;;;4157865;28;20401;-73
2020/12/08 01:33:48;;;;;;;14.48;8.32;;;3.90;99.90;;;;;;4160603;28;20029;-73
2020/12/08 01:35:48;;;;;;;12.48;7.63;;;3.80;99.90;;;;;;4160267;28;20542;-72
2020/12/08 01:37:49;;;;;;;12.15;7.82;;;3.80;99.90;;;;;;4160222;28;20037;-73
2020/12/08 01:39:50;;;;;;;13.57;8.30;;;3.80;99.90;;;;;;4158077;28;20037;-72
2020/12/08 01:41:57;;;;;;;13.18;7.20;;;3.80;99.90;;;;;;4159833;28;20477;-73
2020/12/08 01:43:58;;;;;;;13.52;7.32;;;3.80;99.90;;;;;;4154278;28;20033;-73
2020/12/08 01:46:00;;;;;;;13.32;7.75;;;3.80;99.90;;;;;;4160154;28;20682;-73
2020/12/08 01:48:00;;;;;;;13.98;7.25;;;3.80;99.90;;;;;;4158600;28;20030;-73
2020/12/08 01:50:01;;;;;;;13.20;7.93;;;3.80;99.90;;;;;;4159616;28;20095;-73
2020/12/08 01:52:02;;;;;;;14.40;8.20;;;3.80;99.90;;;;;;4159272;28;20029;-73
2020/12/08 01:54:03;;;;;;;12.23;7.75;;;3.80;99.90;;;;;;4151363;28;20069;-73
2020/12/08 01:56:03;;;;;;;11.88;7.32;;;3.80;99.90;;;;;;4158305;28;20036;-72
2020/12/08 01:58:24;;;;;;;12.38;7.15;;;3.80;99.90;;;;;;4160173;28;20408;-72
2020/12/08 02:00:25;;;;;;;15.70;8.23;;;3.70;99.90;;;;;;4159016;28;20067;-73
2020/12/08 02:02:25;;;;;;;14.30;7.82;;;3.80;99.90;;;;;;4159320;28;20041;-73
2020/12/08 02:04:27;;;;;;;14.93;7.68;;;3.80;99.90;;;;;;4158506;28;20030;-73
2020/12/08 02:06:27;;;;;;;11.70;7.13;;;3.80;99.90;;;;;;4159524;28;20038;-73
2020/12/08 02:08:37;;;;;;;14.68;8.27;;;3.70;99.90;;;;;;4159852;28;20076;-73
2020/12/08 02:10:38;;;;;;;12.55;7.15;;;3.80;99.90;;;;;;4159357;28;20026;-73
2020/12/08 02:12:39;;;;;;;11.40;7.07;;;3.70;99.90;;;;;;4159420;28;20034;-73
2020/12/08 02:14:39;;;;;;;9.80;6.70;;;3.70;99.90;;;;;;4159908;28;20045;-73
2020/12/08 02:16:40;;;;;;;11.73;6.57;;;3.70;99.90;;;;;;4158198;28;20061;-73
2020/12/08 02:18:40;;;;;;;12.45;6.90;;;3.80;99.90;;;;;;4152393;28;20060;-73
2020/12/08 02:20:42;;;;;;;13.32;7.60;;;3.80;99.90;;;;;;4158728;28;20394;-73
2020/12/08 02:22:42;;;;;;;12.90;7.70;;;3.80;99.90;;;;;;4141846;28;20461;-73
2020/12/08 02:24:43;;;;;;;12.93;7.40;;;3.80;99.90;;;;;;4153133;28;20037;-73
2020/12/08 02:26:44;;;;;;;10.43;6.28;;;3.70;99.90;;;;;;4159505;28;20052;-73
2020/12/08 02:28:44;;;;;;;15.05;7.70;;;3.70;99.90;;;;;;4158113;28;20535;-73
2020/12/08 02:30:45;;;;;;;11.27;7.30;;;3.80;99.90;;;;;;4157462;28;20123;-72
2020/12/08 02:32:46;;;;;;;13.15;7.03;;;3.80;99.90;;;;;;4158084;28;20039;-72
2020/12/08 02:34:46;;;;;;;13.07;7.85;;;3.70;99.90;;;;;;4160074;28;22300;-73
2020/12/08 02:36:54;;;;;;;12.35;7.70;;;3.80;99.90;;;;;;4158337;28;20128;-73
2020/12/08 02:38:55;;;;;;;13.82;8.65;;;3.80;99.90;;;;;;4159187;28;20049;-73
2020/12/08 02:40:58;;;;;;;13.82;7.25;;;3.80;99.90;;;;;;4159058;28;20084;-73
2020/12/08 02:42:59;;;;;;;14.25;7.10;;;3.80;99.90;;;;;;4158089;28;20083;-73
2020/12/08 02:44:59;;;;;;;11.68;7.00;;;3.80;99.90;;;;;;4156527;28;20058;-73
2020/12/08 02:47:00;;;;;;;12.13;7.20;;;3.80;99.90;;;;;;4159798;28;20033;-72
2020/12/08 02:49:00;;;;;;;10.82;6.13;;;3.70;99.90;;;;;;4157534;28;20079;-73
2020/12/08 02:51:01;;;;;;;11.35;6.65;;;3.80;99.90;;;;;;4153024;28;20095;-72
2020/12/08 02:53:01;;;;;;;11.13;7.40;;;3.70;99.90;;;;;;4159524;28;20038;-73
2020/12/08 02:55:02;;;;;;;11.05;6.78;;;3.70;99.90;;;;;;4158880;28;20465;-73
2020/12/08 02:57:05;;;;;;;12.57;7.18;;;3.70;99.90;;;;;;4159500;28;20056;-73
2020/12/08 02:59:06;;;;;;;10.82;6.95;;;3.80;99.90;;;;;;4159713;28;20357;-73
2020/12/08 03:01:06;;;;;;;13.23;7.35;;;3.80;99.90;;;;;;4159231;28;20025;-73
2020/12/08 03:03:08;;;;;;;13.50;7.90;;;3.80;99.90;;;;;;4160064;28;20029;-73
2020/12/08 03:05:09;;;;;;;12.63;7.78;;;3.80;99.90;;;;;;4162393;28;20040;-73
2020/12/08 03:07:13;;;;;;;11.10;7.05;;;3.90;99.90;;;;;;4162644;28;20030;-73
2020/12/08 03:09:13;;;;;;;11.82;7.78;;;3.90;99.90;;;;;;4162389;28;20404;-73
2020/12/08 03:11:16;;;;;;;13.18;8.00;;;3.90;99.90;;;;;;4162348;28;20029;-73
2020/12/08 03:13:17;;;;;;;11.25;7.45;;;4.00;99.90;;;;;;4162579;28;20203;-73
2020/12/08 03:15:18;;;;;;;13.57;7.97;;;4.00;99.90;;;;;;4162486;28;20053;-73
2020/12/08 03:17:19;;;;;;;13.35;7.47;;;4.00;99.90;;;;;;4162451;28;20033;-73
2020/12/08 03:19:20;;;;;;;11.57;7.40;;;4.00;99.90;;;;;;4162106;28;20087;-73
2020/12/08 03:21:20;;;;;;;11.13;6.93;;;4.00;99.90;;;;;;4161996;28;20025;-73
2020/12/08 03:23:21;;;;;;;11.68;7.45;;;4.00;99.90;;;;;;4161093;28;20018;-73
2020/12/08 03:25:22;;;;;;;12.52;7.82;;;4.00;99.90;;;;;;4158907;28;20030;-73
2020/12/08 03:27:22;;;;;;;10.48;7.10;;;3.90;99.90;;;;;;4162099;28;20068;-73
2020/12/08 03:29:23;;;;;;;13.52;8.40;;;3.90;99.90;;;;;;4162046;28;20046;-73
2020/12/08 03:31:23;;;;;;;14.02;7.43;;;3.80;99.90;;;;;;4160875;28;20030;-73
2020/12/08 03:33:24;;;;;;;13.77;8.40;;;3.80;99.90;;;;;;4160968;28;20660;-74
2020/12/08 03:35:24;;;;;;;12.23;8.25;;;3.70;99.90;;;;;;4162535;28;20393;-73
2020/12/08 03:37:25;;;;;;;12.13;8.25;;;3.70;99.90;;;;;;4161118;28;20033;-73
2020/12/08 03:39:26;;;;;;;11.15;7.43;;;3.70;99.90;;;;;;4160885;28;20053;-73
2020/12/08 03:41:26;;;;;;;13.65;8.48;;;3.70;99.90;;;;;;4160470;28;20029;-73
2020/12/08 03:43:27;;;;;;;13.85;8.27;;;3.70;99.90;;;;;;4161766;28;20025;-73
2020/12/08 03:45:28;;;;;;;13.75;8.20;;;3.70;99.90;;;;;;4160818;28;20033;-73
2020/12/08 03:47:31;;;;;;;14.18;8.10;;;3.60;99.90;;;;;;4161216;28;20033;-74
2020/12/08 03:49:31;;;;;;;13.18;7.70;;;3.70;99.90;;;;;;4161723;28;20377;-73
2020/12/08 03:51:32;;;;;;;10.82;6.68;;;3.60;99.90;;;;;;4143148;28;20026;-73
2020/12/08 03:53:32;;;;;;;14.57;9.05;;;3.60;99.90;;;;;;4161763;28;20029;-74
2020/12/08 03:55:33;;;;;;;13.80;8.10;;;3.70;99.90;;;;;;4161839;28;20072;-73
2020/12/08 03:57:33;;;;;;;13.30;7.97;;;3.60;99.90;;;;;;4160535;28;20049;-73
2020/12/08 03:59:34;;;;;;;12.82;8.05;;;3.70;99.90;;;;;;4160863;28;20033;-74
2020/12/08 04:01:35;;;;;;;10.98;7.63;;;3.70;99.90;;;;;;4161765;28;20021;-73
2020/12/08 04:03:36;;;;;;;14.50;9.07;;;3.70;99.90;;;;;;4159786;28;20021;-73
2020/12/08 04:05:36;;;;;;;16.23;9.32;;;3.70;99.90;;;;;;4159870;28;20064;-73
2020/12/08 04:07:37;;;;;;;17.05;9.38;;;3.70;99.90;;;;;;4161117;28;20033;-73
2020/12/08 04:09:37;;;;;;;16.80;9.93;;;3.60;99.90;;;;;;4160901;28;20104;-73
2020/12/08 04:11:38;;;;;;;16.33;9.25;;;3.60;99.90;;;;;;4161274;28;20037;-74
2020/12/08 04:13:39;;;;;;;16.00;10.40;;;3.70;99.90;;;;;;4160498;28;20072;-73
2020/12/08 04:15:40;;;;;;;16.38;9.73;;;3.70;99.90;;;;;;4158723;28;20100;-73
2020/12/08 04:17:40;;;;;;;17.23;9.95;;;3.70;99.90;;;;;;4159113;28;20433;-73
2020/12/08 04:19:41;;;;;;;17.38;9.88;;;3.70;99.90;;;;;;4161146;28;20041;-73
2020/12/08 04:21:41;;;;;;;17.25;10.20;;;3.80;99.90;;;;;;4159666;28;20105;-73
2020/12/08 04:23:42;;;;;;;20.75;11.15;;;3.80;99.90;;;;;;4159608;28;20031;-74
2020/12/08 04:25:42;;;;;;;16.63;9.82;;;3.80;99.90;;;;;;4159213;28;20034;-73
2020/12/08 04:27:43;;;;;;;18.77;11.13;;;3.80;99.90;;;;;;4159601;28;20057;-73
2020/12/08 04:29:44;;;;;;;16.85;10.35;;;3.80;99.90;;;;;;4160059;28;20411;-73
2020/12/08 04:31:45;;;;;;;16.70;10.07;;;3.90;99.90;;;;;;4160999;28;20053;-73
2020/12/08 04:33:46;;;;;;;14.95;9.07;;;3.90;99.90;;;;;;4160705;28;20033;-73
2020/12/08 04:35:47;;;;;;;17.73;9.63;;;3.90;99.90;;;;;;4161318;28;20025;-72
2020/12/08 04:37:48;;;;;;;14.70;9.65;;;3.90;99.90;;;;;;4159322;28;20060;-74
2020/12/08 04:39:48;;;;;;;13.02;8.30;;;3.90;99.90;;;;;;4159496;28;20042;-73
2020/12/08 04:41:53;;;;;;;17.75;9.20;;;3.90;99.90;;;;;;4160682;28;20095;-73
2020/12/08 04:43:54;;;;;;;15.13;9.30;;;4.00;99.90;;;;;;4158866;28;20206;-74
2020/12/08 04:45:55;;;;;;;14.52;8.82;;;4.00;99.90;;;;;;4160671;28;20033;-73
2020/12/08 04:48:06;;;;;;;14.77;8.57;;;4.00;99.90;;;;;;4157738;28;20057;-73
2020/12/08 04:50:07;;;;;;;15.20;9.20;;;4.00;99.90;;;;;;4156364;28;20059;-73
2020/12/08 04:52:08;;;;;;;14.57;8.50;;;4.00;99.90;;;;;;4152856;28;20065;-73
2020/12/08 04:54:10;;;;;;;14.20;8.55;;;4.00;99.90;;;;;;4157802;28;20033;-73
2020/12/08 04:56:11;;;;;;;14.75;8.80;;;4.10;99.90;;;;;;4159928;28;20389;-73
2020/12/08 04:58:11;;;;;;;13.02;8.15;;;4.10;99.90;;;;;;4161166;28;20128;-73
2020/12/08 05:00:13;;;;;;;12.38;7.57;;;4.00;99.90;;;;;;4160625;28;20129;-73
2020/12/08 05:02:13;;;;;;;13.77;8.25;;;4.10;99.90;;;;;;4157438;28;20516;-74
2020/12/08 05:04:23;;;;;;;11.63;7.57;;;4.10;99.90;;;;;;4159169;28;20118;-73
2020/12/08 05:06:23;;;;;;;14.23;8.27;;;4.00;99.90;;;;;;4140469;28;20030;-74
2020/12/08 05:08:25;;;;;;;15.05;8.70;;;4.10;99.90;;;;;;4159339;28;20105;-73
2020/12/08 05:10:28;;;;;;;14.63;8.27;;;4.10;99.90;;;;;;4160718;28;20474;-73
2020/12/08 05:12:29;;;;;;;13.70;8.45;;;4.10;99.90;;;;;;4160086;28;20284;-73
2020/12/08 05:14:40;;;;;;;12.93;8.45;;;4.10;99.90;;;;;;4159906;28;20384;-73
2020/12/08 05:16:41;;;;;;;14.80;8.93;;;4.10;99.90;;;;;;4160213;28;20038;-74
2020/12/08 05:18:42;;;;;;;13.80;9.13;;;4.20;99.90;;;;;;4160341;28;20665;-73
2020/12/08 05:20:42;;;;;;;14.00;8.85;;;4.10;99.90;;;;;;4157902;28;20385;-73
2020/12/08 05:22:54;;;;;;;15.93;8.80;;;4.20;99.90;;;;;;4157954;28;20040;-73
2020/12/08 05:24:55;;;;;;;13.35;8.23;;;4.20;99.90;;;;;;4156518;28;20037;-73
2020/12/08 05:27:03;;;;;;;14.15;8.80;;;4.20;99.90;;;;;;4154670;28;20484;-73
2020/12/08 05:29:04;;;;;;;13.27;8.05;;;4.20;99.90;;;;;;4157565;28;20034;-73
2020/12/08 05:31:05;;;;;;;16.15;9.00;;;4.20;99.90;;;;;;4159653;28;20057;-73
2020/12/08 05:33:07;;;;;;;13.55;8.85;;;4.20;99.90;;;;;;4159856;28;20390;-73
2020/12/08 05:35:16;;;;;;;13.63;8.85;;;4.20;99.90;;;;;;4154479;28;20040;-73
2020/12/08 05:37:18;;;;;;;13.13;8.48;;;4.20;99.90;;;;;;4157067;28;20037;-73
2020/12/08 05:39:21;;;;;;;14.52;9.02;;;4.20;99.90;;;;;;4134148;28;20425;-73
2020/12/08 05:41:23;;;;;;;14.32;9.25;;;4.20;99.90;;;;;;4160187;28;20382;-73
2020/12/08 05:43:29;;;;;;;14.50;9.68;;;4.30;99.90;;;;;;4152801;28;20544;-73
2020/12/08 05:45:32;;;;;;;14.13;8.93;;;4.30;99.90;;;;;;4142170;28;20037;-75
2020/12/08 05:47:42;;;;;;;14.65;9.27;;;4.30;99.90;;;;;;4151815;28;20033;-74
2020/12/08 05:49:42;;;;;;;14.63;9.32;;;4.30;99.90;;;;;;4157371;28;20120;-75
2020/12/08 05:51:48;;;;;;;18.30;9.95;;;4.30;99.90;;;;;;4159601;28;20029;-75
2020/12/08 05:53:55;;;;;;;14.98;9.32;;;4.30;99.90;;;;;;4158759;28;20032;-74
2020/12/08 05:56:03;;;;;;;15.18;9.45;;;4.30;99.90;;;;;;4159610;28;20058;-75
2020/12/08 05:58:06;;;;;;;13.57;8.50;;;4.30;99.90;;;;;;4155360;28;20052;-75
2020/12/08 06:00:27;;;;;;;;;;;4.30;99.90;;;;;;4156837;28;20045;-75
2020/12/08 06:02:29;;;;;;;13.65;8.23;;;4.30;99.90;;;;;;4159281;28;19915;-75
2020/12/08 06:04:40;;;;;;;;;;;4.30;99.90;;;;;;4157408;28;20551;-75
2020/12/08 06:06:55;;;;;;;12.93;8.10;;;4.20;99.90;;;;;;4156443;28;19915;-75
2020/12/08 06:08:55;;;;;;;16.30;10.05;;;4.20;99.90;;;;;;4158292;28;20034;-75
2020/12/08 06:10:57;;;;;;;19.38;11.05;;;4.20;99.90;;;;;;4158285;28;20145;-75
2020/12/08 06:13:01;;;;;;;16.27;10.63;;;4.20;99.90;;;;;;4158492;28;20025;-75
2020/12/08 06:15:13;;;;;;;15.43;9.77;;;4.20;99.90;;;;;;4158592;28;20037;-75
2020/12/08 06:17:14;;;;;;;15.27;9.48;;;4.10;99.90;;;;;;4158819;28;20092;-75
2020/12/08 06:19:14;;;;;;;15.55;9.85;;;4.10;99.90;;;;;;4158057;28;20037;-75
2020/12/08 06:21:26;;;;;;;14.98;9.07;;;4.00;99.90;;;;;;4158091;28;20037;-75
2020/12/08 06:23:27;;;;;;;14.75;9.35;;;4.00;99.90;;;;;;4154029;28;20069;-75
2020/12/08 06:25:27;;;;;;;13.90;9.00;;;3.90;99.90;;;;;;4156722;28;20033;-74
2020/12/08 06:27:28;;;;;;;17.35;10.98;;;4.00;99.90;;;;;;4157878;28;20612;-74
2020/12/08 06:29:29;;;;;;;18.00;10.68;;;4.00;99.90;;;;;;4157497;28;20553;-74
2020/12/08 06:31:45;;;;;;;19.17;11.55;;;3.90;99.90;;;;;;4157829;28;20362;-74
2020/12/08 06:33:47;;;;;;;18.08;10.07;;;3.90;99.90;;;;;;4152538;28;20647;-74
2020/12/08 06:35:48;;;;;;;17.92;10.77;;;4.00;99.90;;;;;;4147335;28;20041;-74
2020/12/08 06:37:56;;;;;;;18.20;10.20;;;4.00;99.90;;;;;;4157415;28;20445;-74
2020/12/08 06:40:26;;;;;;;16.45;10.15;;;4.00;99.90;;;;;;4161351;28;20131;-74
2020/12/08 06:42:29;;;;;;;15.70;10.00;;;4.00;99.90;;;;;;4136543;28;20408;-74
2020/12/08 06:44:30;;;;;;;18.67;10.15;;;4.00;99.90;;;;;;4160627;28;20037;-74
2020/12/08 06:46:31;;;;;;;18.02;11.23;;;4.00;99.90;;;;;;4159944;28;20044;-74
2020/12/08 06:48:35;;;;;;;17.77;10.90;;;4.00;99.90;;;;;;4159446;28;20045;-75
2020/12/08 06:50:35;;;;;;;20.60;11.55;;;4.00;99.90;;;;;;4156933;28;20393;-74
2020/12/08 06:52:36;;;;;;;21.08;12.38;;;3.90;99.90;;;;;;4150832;28;20136;-74
2020/12/08 06:54:36;;;;;;;17.42;10.77;;;3.90;99.90;;;;;;4153196;28;20034;-74
2020/12/08 06:56:37;;;;;;;20.45;11.77;;;3.90;99.90;;;;;;4153649;28;20041;-74
2020/12/08 06:58:47;;;;;;;18.80;11.20;;;3.90;99.90;;;;;;4160443;28;20033;-74
2020/12/08 07:00:48;;;;;;;18.95;11.88;;;3.90;99.90;;;;;;4159399;28;20053;-74
2020/12/08 07:02:50;;;;;;;20.35;12.10;;;3.80;99.90;;;;;;4159391;28;20390;-74
2020/12/08 07:04:51;;;;;;;18.52;11.68;;;3.90;99.90;;;;;;4155792;28;20233;-74
2020/12/08 07:06:52;;;;;;;20.27;11.90;;;3.80;99.90;;;;;;4158668;28;20029;-75
2020/12/08 07:08:54;;;;;;;20.20;12.13;;;3.80;99.90;;;;;;4159766;28;20481;-74
2020/12/08 07:10:55;;;;;;;20.73;11.80;;;3.90;99.90;;;;;;4155016;28;20068;-74
2020/12/08 07:12:56;;;;;;;18.80;11.23;;;3.80;99.90;;;;;;4154855;28;20034;-74
2020/12/08 07:14:58;;;;;;;20.83;12.02;;;3.80;99.90;;;;;;4149919;28;20041;-76
2020/12/08 07:16:59;;;;;;;19.95;12.02;;;3.80;99.90;;;;;;4157609;28;20068;-77
2020/12/08 07:19:07;;;;;;;18.58;11.48;;;3.80;99.90;;;;;;4161176;28;20033;-76
2020/12/08 07:21:13;;;;;;;18.10;11.43;;;3.90;99.90;;;;;;4156148;28;20049;-76
2020/12/08 07:23:13;;;;;;;18.95;11.63;;;3.90;99.90;;;;;;4158055;28;20037;-76
2020/12/08 07:25:17;;;;;;;20.73;12.73;;;3.90;99.90;;;;;;4150221;28;20038;-77
2020/12/08 07:27:19;;;;;;;19.08;11.70;;;3.90;99.90;;;;;;4154788;28;20030;-77
2020/12/08 07:29:19;;;;;;;20.08;11.90;;;3.80;99.90;;;;;;4162875;28;20107;-77
2020/12/08 07:31:22;;;;;;;23.73;13.63;;;3.80;99.90;;;;;;4154480;28;20034;-76
2020/12/08 07:33:30;;;;;;;20.58;12.07;;;3.70;99.90;;;;;;4151836;28;20108;-76
2020/12/08 07:35:35;;;;;;;22.38;12.55;;;3.70;99.90;;;;;;4159747;28;20037;-76
2020/12/08 07:37:37;;;;;;;19.75;12.40;;;3.70;99.90;;;;;;4154174;28;20025;-76
2020/12/08 07:39:37;;;;;;;22.13;12.98;;;3.70;99.90;;;;;;4150463;28;20041;-76
2020/12/08 07:41:38;;;;;;;18.92;12.15;;;3.70;99.90;;;;;;4154298;28;20176;-76
2020/12/08 07:43:38;;;;;;;17.85;11.50;;;3.70;99.90;;;;;;4153630;28;20034;-76
2020/12/08 07:45:46;;;;;;;18.85;12.18;;;3.70;99.90;;;;;;4152718;28;20507;-76
2020/12/08 07:47:52;;;;;;;19.65;11.57;;;3.70;99.90;;;;;;4151616;28;20036;-76
2020/12/08 07:49:53;;;;;;;18.15;11.27;;;3.70;99.90;;;;;;4151667;28;20501;-75
2020/12/08 07:51:53;;;;;;;20.75;12.40;;;3.70;99.90;;;;;;4152859;28;20079;-76
2020/12/08 07:53:54;;;;;;;18.63;10.90;;;3.80;99.90;;;;;;4155655;28;20021;-76
2020/12/08 07:55:55;;;;;;;19.33;11.50;;;3.70;99.90;;;;;;4136572;28;20050;-75
2020/12/08 07:57:57;;;;;;;18.65;11.45;;;3.80;99.90;;;;;;4141928;28;20509;-76
2020/12/08 07:59:58;;;;;;;20.52;12.30;;;3.80;99.90;;;;;;4152272;28;20045;-76
2020/12/08 08:01:58;;;;;;;19.20;11.63;;;3.80;99.90;;;;;;4153285;28;20052;-76
2020/12/08 08:03:59;;;;;;;20.48;11.82;;;3.80;99.90;;;;;;4150883;28;20069;-75
2020/12/08 08:05:59;;;;;;;20.88;12.70;;;3.80;99.90;;;;;;4153213;28;20033;-76
2020/12/08 08:08:00;;;;;;;22.20;12.57;;;3.80;99.90;;;;;;4157274;28;20033;-75
2020/12/08 08:10:01;;;;;;;19.55;11.65;;;3.80;99.90;;;;;;4145897;28;20045;-75
2020/12/08 08:12:03;;;;;;;19.33;12.27;;;3.80;99.90;;;;;;4154603;28;20025;-76
2020/12/08 08:14:05;;;;;;;22.20;11.82;;;3.80;99.90;;;;;;4140615;28;20057;-76
2020/12/08 08:16:10;;;;;;;17.95;11.57;;;3.80;99.90;;;;;;4159537;28;20040;-75
2020/12/08 08:18:11;;;;;;;19.42;12.07;;;3.80;99.90;;;;;;4154451;28;20034;-77
2020/12/08 08:20:11;;;;;;;22.35;12.93;;;3.90;99.90;;;;;;4154577;28;20502;-74
2020/12/08 08:22:12;;;;;;;19.95;12.73;;;3.80;99.90;;;;;;4153272;28;20049;-74
2020/12/08 08:24:12;;;;;;;19.77;11.63;;;3.90;99.90;;;;;;4137619;28;20038;-74
2020/12/08 08:26:14;;;;;;;20.38;12.27;;;3.90;99.90;;;;;;4154932;28;20868;-74
2020/12/08 08:28:15;;;;;;;19.73;12.53;;;3.90;99.90;;;;;;4158142;28;20045;-74
2020/12/08 08:30:16;;;;;;;19.10;12.15;;;3.90;99.90;;;;;;4159154;28;20807;-74
2020/12/08 08:32:17;;;;;;;19.10;11.98;;;4.00;99.90;;;;;;4155658;28;20033;-74
2020/12/08 08:34:17;;;;;;;19.55;11.85;;;4.00;99.90;;;;;;4159084;28;20040;-74
2020/12/08 08:36:18;;;;;;;21.52;12.02;;;4.00;99.90;;;;;;4158729;28;20687;-74
2020/12/08 08:38:21;;;;;;;21.42;12.93;;;4.00;99.90;;;;;;4159507;28;20052;-74
2020/12/08 08:40:22;;;;;;;21.77;12.98;;;4.00;99.90;;;;;;4156235;28;20119;-75
2020/12/08 08:42:22;;;;;;;21.27;12.57;;;4.00;99.90;;;;;;4158991;28;20551;-74
2020/12/08 08:44:24;;;;;;;20.85;12.52;;;4.00;99.90;;;;;;4159661;28;20041;-74
2020/12/08 08:46:25;;;;;;;19.80;11.07;;;4.10;99.90;;;;;;4157610;28;20049;-74
2020/12/08 08:48:25;;;;;;;20.08;11.10;;;4.10;99.90;;;;;;4157197;28;20041;-74
2020/12/08 08:50:27;;;;;;;18.50;11.60;;;4.20;99.90;;;;;;4151510;28;20037;-74
2020/12/08 08:52:27;;;;;;;20.83;12.18;;;4.20;99.90;;;;;;4156911;28;20407;-74
2020/12/08 08:54:28;;;;;;;23.20;12.52;;;4.20;99.90;;;;;;4157432;28;20030;-74
2020/12/08 08:56:28;;;;;;;19.05;12.38;;;4.30;99.90;;;;;;4153826;28;20037;-74
2020/12/08 08:58:29;;;;;;;20.90;12.32;;;4.30;99.90;;;;;;4159077;28;20409;-74
2020/12/08 09:00:31;;;;;;;18.77;11.80;;;4.30;99.90;;;;;;4151108;28;20273;-74
2020/12/08 09:02:32;;;;;;;22.27;12.55;;;4.40;99.90;;;;;;4159561;28;20496;-74
2020/12/08 09:04:32;;;;;;;20.75;12.15;;;4.40;99.90;;;;;;4159713;28;20064;-74
2020/12/08 09:06:33;;;;;;;20.75;13.07;;;4.50;99.90;;;;;;4161298;28;20371;-74
2020/12/08 09:08:34;;;;;;;20.70;12.38;;;4.50;99.90;;;;;;4158851;28;20474;-74
2020/12/08 09:10:34;;;;;;;22.00;13.43;;;4.50;99.90;;;;;;4160848;28;20034;-74
2020/12/08 09:12:42;;;;;;;21.10;14.38;;;4.60;99.90;;;;;;4158648;28;20113;-74
2020/12/08 09:14:42;;;;;;;19.52;13.15;;;4.60;99.90;;;;;;4160901;28;20029;-74
2020/12/08 09:16:44;;;;;;;18.83;11.95;;;4.70;99.90;;;;;;4158209;28;20053;-74
2020/12/08 09:18:46;;;;;;;19.15;11.93;;;4.80;99.90;;;;;;4157221;28;20030;-74
2020/12/08 09:20:47;;;;;;;17.05;11.90;;;4.80;99.90;;;;;;4155701;28;20087;-74
2020/12/08 09:22:47;;;;;;;17.60;12.05;;;4.80;99.90;;;;;;4155495;28;20049;-74
2020/12/08 09:24:48;;;;;;;21.77;13.10;;;4.90;99.90;;;;;;4158265;28;20056;-74
2020/12/08 09:26:48;;;;;;;21.25;12.88;;;4.90;99.90;;;;;;4155447;28;20060;-74
2020/12/08 09:28:49;;;;;;;21.52;13.40;;;5.00;99.90;;;;;;4153252;28;20037;-74
2020/12/08 09:30:49;;;;;;;19.70;13.02;;;5.10;99.90;;;;;;4157471;28;20094;-74
2020/12/08 09:32:50;;;;;;;22.50;13.95;;;5.10;99.90;;;;;;4152932;28;20607;-74
2020/12/08 09:34:50;;;;;;;21.23;13.70;;;5.10;99.90;;;;;;4158022;28;20041;-74
2020/12/08 09:36:53;;;;;;;22.33;13.48;;;5.10;99.90;;;;;;4155152;28;20037;-74
2020/12/08 09:38:53;;;;;;;25.52;14.70;;;5.20;99.90;;;;;;4158203;28;20033;-74
2020/12/08 09:40:54;;;;;;;24.90;13.60;;;5.20;99.90;;;;;;4157672;28;20067;-74
2020/12/08 09:42:55;;;;;;;23.08;14.23;;;5.30;99.90;;;;;;4157292;28;20026;-74
2020/12/08 09:44:56;;;;;;;23.33;13.60;;;5.30;99.90;;;;;;4157602;28;20370;-74
2020/12/08 09:46:57;;;;;;;26.98;14.93;;;5.30;99.90;;;;;;4158070;28;20643;-74
2020/12/08 09:48:57;;;;;;;33.47;15.77;;;5.30;99.90;;;;;;4157269;28;20030;-74
2020/12/08 09:50:58;;;;;;;31.75;15.68;;;5.40;99.90;;;;;;4152383;28;20474;-74
2020/12/08 09:52:59;;;;;;;37.53;18.15;;;5.40;99.90;;;;;;4156219;28;20088;-74
2020/12/08 09:55:00;;;;;;;32.88;17.92;;;5.40;99.90;;;;;;4151310;28;20037;-74
2020/12/08 09:57:02;;;;;;;29.05;16.08;;;5.40;99.90;;;;;;4152153;28;20057;-74
2020/12/08 09:59:02;;;;;;;32.37;17.13;;;5.50;99.90;;;;;;4157843;28;20112;-74
2020/12/08 10:01:03;;;;;;;30.98;15.85;;;5.50;99.90;;;;;;4156951;28;20061;-74
2020/12/08 10:03:03;;;;;;;35.03;17.02;;;5.50;99.90;;;;;;4155925;28;20557;-74
2020/12/08 10:05:04;;;;;;;24.52;14.48;;;5.50;99.90;;;;;;4155518;28;20022;-74
2020/12/08 10:07:05;;;;;;;28.02;16.02;;;5.60;99.90;;;;;;4157707;28;20080;-74
2020/12/08 10:09:07;;;;;;;24.98;13.57;;;5.60;99.90;;;;;;4157007;28;20063;-74
2020/12/08 10:11:09;;;;;;;23.25;13.63;;;5.60;99.90;;;;;;4155998;28;20089;-74
2020/12/08 10:13:09;;;;;;;20.05;12.85;;;5.70;99.90;;;;;;4156369;28;20092;-74
2020/12/08 10:15:10;;;;;;;18.20;11.77;;;5.70;99.90;;;;;;4157687;28;20440;-74
2020/12/08 10:17:13;;;;;;;18.88;10.82;;;5.70;99.90;;;;;;4156207;28;20091;-74
2020/12/08 10:19:14;;;;;;;17.15;9.98;;;5.70;99.90;;;;;;4139729;28;20474;-74
2020/12/08 10:21:21;;;;;;;15.93;9.40;;;5.80;99.90;;;;;;4156672;28;20072;-74
2020/12/08 10:23:21;;;;;;;13.45;8.80;;;5.80;99.90;;;;;;4156899;28;20044;-74
2020/12/08 10:25:22;;;;;;;18.45;10.63;;;5.80;99.90;;;;;;4155709;28;20037;-74
2020/12/08 10:27:22;;;;;;;14.80;9.82;;;5.80;99.90;;;;;;4150704;28;20064;-73
2020/12/08 10:29:23;;;;;;;14.35;9.43;;;5.80;99.90;;;;;;4150538;28;20100;-74
2020/12/08 10:31:23;;;;;;;15.82;9.02;;;5.80;99.90;;;;;;4151272;28;20040;-73